createdAt,value
2022-11-14T00:01:08.317Z,6.38
2022-11-14T00:03:35.012Z,6.37
2022-11-14T00:06:06.144Z,6.42
2022-11-14T00:08:32.880Z,6.45
2022-11-14T00:10:59.809Z,6.42
2022-11-14T00:13:26.458Z,6.45
2022-11-14T00:15:55.939Z,6.38
2022-11-14T00:18:23.537Z,6.33
2022-11-14T00:20:51.796Z,6.54
2022-11-14T00:23:22.490Z,6.46
2022-11-14T00:25:52.628Z,6.54
2022-11-14T00:28:19.254Z,6.46
2022-11-14T00:30:48.052Z,6.55
2022-11-14T00:33:19.766Z,6.47
2022-11-14T00:35:54.379Z,6.55
2022-11-14T00:38:21.448Z,6.48
2022-11-14T00:40:48.180Z,6.41
2022-11-14T00:43:14.917Z,6.36
2022-11-14T00:45:46.575Z,6.30
2022-11-14T00:48:13.943Z,6.37
2022-11-14T00:50:43.527Z,6.43
2022-11-14T00:53:10.554Z,6.45
2022-11-14T00:55:37.166Z,6.49
2022-11-14T00:58:04.348Z,6.44
2022-11-14T01:00:31.233Z,6.52
2022-11-14T01:03:01.366Z,6.51
2022-11-14T01:05:28.103Z,6.49
2022-11-14T01:07:54.755Z,6.44
2022-11-14T01:10:21.874Z,6.46
2022-11-14T01:12:48.638Z,6.46
2022-11-14T01:15:15.412Z,6.52
2022-11-14T01:17:42.034Z,6.44
2022-11-14T01:20:08.930Z,6.51
2022-11-14T01:22:38.365Z,6.43
2022-11-14T01:25:05.375Z,6.43
2022-11-14T01:27:32.038Z,6.51
2022-11-14T01:29:58.743Z,6.53
2022-11-14T01:32:27.161Z,6.52
2022-11-14T01:34:53.811Z,6.50
2022-11-14T01:37:20.462Z,6.54
2022-11-14T01:39:47.108Z,6.45
2022-11-14T01:42:13.724Z,6.48
2022-11-14T01:44:52.535Z,6.54
2022-11-14T01:47:22.845Z,6.53
2022-11-14T01:49:54.077Z,6.45
2022-11-14T01:52:32.297Z,6.39
2022-11-14T01:55:00.683Z,6.54
2022-11-14T01:57:34.060Z,6.46
2022-11-14T02:00:06.156Z,6.47
2022-11-14T02:02:32.784Z,6.47
2022-11-14T02:05:09.350Z,6.56
2022-11-14T02:07:39.216Z,6.59
2022-11-14T02:10:09.339Z,6.63
2022-11-14T02:12:36.450Z,6.52
2022-11-14T02:15:04.018Z,6.49
2022-11-14T02:17:31.265Z,6.31
2022-11-14T02:20:10.633Z,6.33
2022-11-14T02:22:39.318Z,6.28
2022-11-14T02:25:07.339Z,6.32
2022-11-14T02:27:35.047Z,6.40
2022-11-14T02:30:11.114Z,6.44
2022-11-14T02:33:08.883Z,6.30
2022-11-14T02:35:24.300Z,6.32
2022-11-14T02:37:50.954Z,6.28
2022-11-14T02:40:17.651Z,6.23
2022-11-14T02:42:44.452Z,6.21
2022-11-14T02:45:11.526Z,6.37
2022-11-14T02:47:38.160Z,6.37
2022-11-14T02:50:05.079Z,6.41
2022-11-14T02:52:31.689Z,6.36
2022-11-14T02:54:58.299Z,6.35
2022-11-14T02:57:24.932Z,6.33
2022-11-14T02:59:51.533Z,6.40
2022-11-14T03:02:18.191Z,6.37
2022-11-14T03:04:44.794Z,6.41
2022-11-14T03:07:11.630Z,6.44
2022-11-14T03:09:38.285Z,6.49
2022-11-14T03:12:04.996Z,6.45
2022-11-14T03:14:31.869Z,6.41
2022-11-14T03:16:58.480Z,6.49
2022-11-14T03:19:25.089Z,6.47
2022-11-14T03:21:51.694Z,6.54
2022-11-14T03:24:18.403Z,6.48
2022-11-14T03:26:45.018Z,6.45
2022-11-14T03:29:11.587Z,6.47
2022-11-14T03:31:38.216Z,6.47
2022-11-14T03:34:04.826Z,6.41
2022-11-14T03:36:31.519Z,6.47
2022-11-14T03:38:58.197Z,6.34
2022-11-14T03:41:24.783Z,6.42
2022-11-14T03:43:51.368Z,6.46
2022-11-14T03:46:17.952Z,6.46
2022-11-14T03:48:44.533Z,6.45
2022-11-14T03:51:11.124Z,6.47
2022-11-14T03:53:37.750Z,6.45
2022-11-14T03:56:04.601Z,6.45
2022-11-14T03:58:31.571Z,6.42
2022-11-14T04:00:58.593Z,6.52
2022-11-14T04:03:25.667Z,6.44
2022-11-14T04:05:52.308Z,6.46
2022-11-14T04:08:18.976Z,6.43
2022-11-14T04:10:49.290Z,6.30
2022-11-14T04:13:16.165Z,6.24
2022-11-14T04:15:43.236Z,6.38
2022-11-14T04:18:09.850Z,6.32
2022-11-14T04:20:36.639Z,6.30
2022-11-14T04:23:03.272Z,6.33
2022-11-14T04:25:29.921Z,6.33
2022-11-14T04:27:56.584Z,6.26
2022-11-14T04:30:23.263Z,6.30
2022-11-14T04:32:49.943Z,6.20
2022-11-14T04:35:16.640Z,6.24
2022-11-14T04:37:43.285Z,6.27
2022-11-14T04:40:10.178Z,6.33
2022-11-14T04:42:36.802Z,6.27
2022-11-14T04:45:03.599Z,6.21
2022-11-14T04:47:30.323Z,6.21
2022-11-14T04:49:56.942Z,6.16
2022-11-14T04:52:23.528Z,6.08
2022-11-14T04:54:50.227Z,6.11
2022-11-14T04:57:17.987Z,6.11
2022-11-14T04:59:44.691Z,6.09
2022-11-14T05:02:11.383Z,6.15
2022-11-14T05:04:38.160Z,6.11
2022-11-14T05:07:04.904Z,6.06
2022-11-14T05:09:31.832Z,6.12
2022-11-14T05:12:08.804Z,6.07
2022-11-14T05:14:55.458Z,6.07
2022-11-14T05:17:22.261Z,6.19
2022-11-14T05:19:48.964Z,6.18
2022-11-14T05:22:15.675Z,6.14
2022-11-14T05:24:42.293Z,6.10
2022-11-14T05:27:08.902Z,6.17
2022-11-14T05:29:35.506Z,6.08
2022-11-14T05:32:02.184Z,6.08
2022-11-14T05:34:28.809Z,6.09
2022-11-14T05:36:55.642Z,6.06
2022-11-14T05:39:22.253Z,5.98
2022-11-14T05:41:48.835Z,6.03
2022-11-14T05:44:15.604Z,6.03
2022-11-14T05:46:42.248Z,6.02
2022-11-14T05:49:08.850Z,5.93
2022-11-14T05:51:35.482Z,6.03
2022-11-14T05:54:02.210Z,6.03
2022-11-14T05:56:28.833Z,6.02
2022-11-14T05:58:55.539Z,6.00
2022-11-14T06:01:22.194Z,6.00
2022-11-14T06:03:49.026Z,5.90
2022-11-14T06:06:18.338Z,5.84
2022-11-14T06:08:44.997Z,5.98
2022-11-14T06:11:17.197Z,5.95
2022-11-14T06:13:43.862Z,6.02
2022-11-14T06:16:13.581Z,5.92
2022-11-14T06:18:40.325Z,6.04
2022-11-14T06:21:12.743Z,6.03
2022-11-14T06:23:39.436Z,5.97
2022-11-14T06:26:08.327Z,5.87
2022-11-14T06:28:34.890Z,5.96
2022-11-14T06:31:05.039Z,5.96
2022-11-14T06:33:36.076Z,6.01
2022-11-14T06:36:07.467Z,6.10
2022-11-14T06:38:36.322Z,6.02
2022-11-14T06:41:07.333Z,5.98
2022-11-14T06:43:35.064Z,5.98
2022-11-14T06:46:02.470Z,5.97
2022-11-14T06:48:29.546Z,5.91
2022-11-14T06:50:58.068Z,5.96
2022-11-14T06:53:24.969Z,6.07
2022-11-14T06:56:16.356Z,6.04
2022-11-14T06:58:48.809Z,5.97
2022-11-14T07:01:22.428Z,6.00
2022-11-14T07:03:49.662Z,5.92
2022-11-14T07:06:18.608Z,6.08
2022-11-14T07:08:45.421Z,6.00
2022-11-14T07:11:23.019Z,5.92
2022-11-14T07:13:55.466Z,5.91
2022-11-14T07:16:48.543Z,5.95
2022-11-14T07:19:15.298Z,5.87
2022-11-14T07:21:42.050Z,5.81
2022-11-14T07:24:08.675Z,6.01
2022-11-14T07:26:35.353Z,5.92
2022-11-14T07:29:02.949Z,5.98
2022-11-14T07:31:29.782Z,5.85
2022-11-14T07:33:56.414Z,5.84
2022-11-14T07:36:23.421Z,6.05
2022-11-14T07:38:50.039Z,6.06
2022-11-14T07:41:16.675Z,6.03
2022-11-14T07:43:43.280Z,6.08
2022-11-14T07:46:15.567Z,6.11
2022-11-14T07:48:42.230Z,6.20
2022-11-14T07:51:17.449Z,6.25
2022-11-14T07:53:44.417Z,6.23
2022-11-14T07:56:11.625Z,6.31
2022-11-14T07:58:39.428Z,6.32
2022-11-14T08:01:07.717Z,6.29
2022-11-14T08:03:35.034Z,6.31
2022-11-14T08:06:09.871Z,6.44
2022-11-14T08:08:36.739Z,6.27
2022-11-14T08:11:03.695Z,6.35
2022-11-14T08:13:32.802Z,6.18
2022-11-14T08:16:09.190Z,6.29
2022-11-14T08:18:38.774Z,6.34
2022-11-14T08:21:05.593Z,6.43
2022-11-14T08:23:32.387Z,6.45
2022-11-14T08:25:59.967Z,6.46
2022-11-14T08:28:26.877Z,6.35
2022-11-14T08:30:59.142Z,6.42
2022-11-14T08:33:25.751Z,6.46
2022-11-14T08:35:52.346Z,6.52
2022-11-14T08:38:18.995Z,6.54
2022-11-14T08:40:45.578Z,6.63
2022-11-14T08:43:12.147Z,6.63
2022-11-14T08:45:38.722Z,6.63
2022-11-14T08:48:05.894Z,6.59
2022-11-14T08:50:32.550Z,6.53
2022-11-14T08:52:59.135Z,6.58
2022-11-14T08:55:25.802Z,6.65
2022-11-14T08:57:53.361Z,6.71
2022-11-14T09:00:20.271Z,6.72
2022-11-14T09:02:47.183Z,6.68
2022-11-14T09:05:13.828Z,6.89
2022-11-14T09:07:40.435Z,6.89
2022-11-14T09:10:07.578Z,7.00
2022-11-14T09:12:34.276Z,7.14
2022-11-14T09:15:01.030Z,7.10
2022-11-14T09:17:27.829Z,7.32
2022-11-14T09:19:54.474Z,7.29
2022-11-14T09:22:21.249Z,7.26
2022-11-14T09:24:49.399Z,7.28
2022-11-14T09:27:16.025Z,7.09
2022-11-14T09:29:43.678Z,6.96
2022-11-14T09:32:10.357Z,6.91
2022-11-14T09:34:37.357Z,6.73
2022-11-14T09:37:03.972Z,6.87
2022-11-14T09:39:30.605Z,6.88
2022-11-14T09:42:06.035Z,6.80
2022-11-14T09:44:47.545Z,6.74
2022-11-14T09:47:20.723Z,7.02
2022-11-14T09:49:49.825Z,6.94
2022-11-14T09:52:39.643Z,6.88
2022-11-14T09:55:36.930Z,6.96
2022-11-14T09:58:04.429Z,6.98
2022-11-14T10:00:52.246Z,6.88
2022-11-14T10:03:24.761Z,6.92
2022-11-14T10:06:08.638Z,7.01
2022-11-14T10:08:41.160Z,6.94
2022-11-14T10:11:20.065Z,7.08
2022-11-14T10:14:03.382Z,7.17
2022-11-14T10:16:29.862Z,6.99
2022-11-14T10:19:50.670Z,7.22
2022-11-14T10:22:41.511Z,7.34
2022-11-14T10:25:25.902Z,7.51
2022-11-14T10:28:23.534Z,7.75
2022-11-14T10:30:59.017Z,7.77
2022-11-14T10:34:07.402Z,8.05
2022-11-14T10:36:50.613Z,8.25
2022-11-14T10:39:35.164Z,8.45
2022-11-14T10:42:08.614Z,8.63
2022-11-14T10:44:43.416Z,8.45
2022-11-14T10:47:15.220Z,8.69
2022-11-14T10:49:42.556Z,8.82
2022-11-14T10:52:18.656Z,8.74
2022-11-14T10:54:48.761Z,8.69
2022-11-14T10:57:21.150Z,8.65
2022-11-14T10:59:48.456Z,8.23
2022-11-14T11:02:15.446Z,8.40
2022-11-14T11:04:43.579Z,8.67
2022-11-14T11:07:10.246Z,8.67
2022-11-14T11:09:57.793Z,8.49
2022-11-14T11:12:40.774Z,8.71
2022-11-14T11:15:14.194Z,9.02
2022-11-14T11:18:21.912Z,9.08
2022-11-14T11:21:01.953Z,9.21
2022-11-14T11:23:28.846Z,9.14
2022-11-14T11:26:01.143Z,9.19
2022-11-14T11:28:30.331Z,9.08
2022-11-14T11:30:59.070Z,9.23
2022-11-14T11:33:28.327Z,9.30
2022-11-14T11:35:57.647Z,8.95
2022-11-14T11:38:29.930Z,9.02
2022-11-14T11:42:06.234Z,8.97
2022-11-14T11:44:21.089Z,8.89
2022-11-14T11:46:54.277Z,9.03
2022-11-14T11:49:48.669Z,8.91
2022-11-14T11:52:26.882Z,8.88
2022-11-14T11:55:08.650Z,9.10
2022-11-14T11:57:48.884Z,9.29
2022-11-14T12:00:18.275Z,9.40
2022-11-14T12:02:49.994Z,9.08
2022-11-14T12:05:23.757Z,9.14
2022-11-14T12:08:04.498Z,9.13
2022-11-14T12:10:34.345Z,9.11
2022-11-14T12:13:19.429Z,9.01
2022-11-14T12:15:55.850Z,9.07
2022-11-14T12:18:38.150Z,9.20
2022-11-14T12:21:15.403Z,9.26
2022-11-14T12:23:57.165Z,9.20
2022-11-14T12:27:24.519Z,9.11
2022-11-14T12:30:04.627Z,9.22
2022-11-14T12:32:57.481Z,9.02
2022-11-14T12:35:26.803Z,9.03
2022-11-14T12:37:56.067Z,9.11
2022-11-14T12:40:34.620Z,9.01
2022-11-14T12:43:02.631Z,9.01
2022-11-14T12:45:41.456Z,9.15
2022-11-14T12:48:14.249Z,9.31
2022-11-14T12:50:42.541Z,9.03
2022-11-14T12:53:38.177Z,9.15
2022-11-14T12:56:16.779Z,9.29
2022-11-14T12:59:06.418Z,9.33
2022-11-14T13:01:41.677Z,9.20
2022-11-14T13:04:26.739Z,9.32
2022-11-14T13:07:12.294Z,9.26
2022-11-14T13:09:58.162Z,9.21
2022-11-14T13:12:53.450Z,9.20
2022-11-14T13:15:50.009Z,9.24
2022-11-14T13:18:43.409Z,9.28
2022-11-14T13:21:43.788Z,9.19
2022-11-14T13:24:16.532Z,9.10
2022-11-14T13:26:48.540Z,9.02
2022-11-14T13:29:41.241Z,9.09
2022-11-14T13:32:11.983Z,9.09
2022-11-14T13:34:45.277Z,9.30
2022-11-14T13:37:40.128Z,9.08
2022-11-14T13:40:06.702Z,9.08
2022-11-14T13:42:48.139Z,9.15
2022-11-14T13:45:41.470Z,9.10
2022-11-14T13:48:33.873Z,8.92
2022-11-14T13:51:21.786Z,8.94
2022-11-14T13:53:52.294Z,9.05
2022-11-14T13:56:32.579Z,8.92
2022-11-14T13:59:20.893Z,8.77
2022-11-14T14:01:50.608Z,8.80
2022-11-14T14:04:54.862Z,8.93
2022-11-14T14:07:44.931Z,8.73
2022-11-14T14:10:24.771Z,8.71
2022-11-14T14:13:19.850Z,8.82
2022-11-14T14:15:58.065Z,8.69
2022-11-14T14:18:54.179Z,8.45
2022-11-14T14:21:51.809Z,8.49
2022-11-14T14:24:47.203Z,8.58
2022-11-14T14:27:20.723Z,8.51
2022-11-14T14:30:01.439Z,8.49
2022-11-14T14:32:28.172Z,8.29
2022-11-14T14:34:58.485Z,8.20
2022-11-14T14:37:27.452Z,8.36
2022-11-14T14:40:01.162Z,8.28
2022-11-14T14:42:35.207Z,8.23
2022-11-14T14:45:03.181Z,8.02
2022-11-14T14:47:34.297Z,8.06
2022-11-14T14:50:03.502Z,8.01
2022-11-14T14:52:37.716Z,7.94
2022-11-14T14:55:06.733Z,7.90
2022-11-14T14:57:33.631Z,7.87
2022-11-14T15:00:00.863Z,7.74
2022-11-14T15:02:28.548Z,7.61
2022-11-14T15:04:56.161Z,7.66
2022-11-14T15:07:25.128Z,7.48
2022-11-14T15:09:57.331Z,7.36
2022-11-14T15:12:25.554Z,7.13
2022-11-14T15:14:53.731Z,7.28
2022-11-14T15:17:22.060Z,7.00
2022-11-14T15:19:50.674Z,7.05
2022-11-14T15:22:20.492Z,6.97
2022-11-14T15:25:11.696Z,6.75
2022-11-14T15:27:48.811Z,6.74
2022-11-14T15:30:27.599Z,6.60
2022-11-14T15:32:56.407Z,6.55
2022-11-14T15:35:25.480Z,6.62
2022-11-14T15:38:36.747Z,6.40
2022-11-14T15:41:18.442Z,6.39
2022-11-14T15:43:45.053Z,6.30
2022-11-14T15:46:28.919Z,6.31
2022-11-14T15:48:55.979Z,6.26
2022-11-14T15:51:40.007Z,6.05
2022-11-14T15:54:20.403Z,5.99
2022-11-14T15:56:48.510Z,5.94
2022-11-14T15:59:15.444Z,5.84
2022-11-14T16:01:43.588Z,5.72
2022-11-14T16:04:15.192Z,5.71
2022-11-14T16:06:41.900Z,5.82
2022-11-14T16:09:14.332Z,5.78
2022-11-14T16:11:40.921Z,5.55
2022-11-14T16:14:09.754Z,5.46
2022-11-14T16:16:36.592Z,5.55
2022-11-14T16:19:03.500Z,5.45
2022-11-14T16:21:30.193Z,5.25
2022-11-14T16:23:59.459Z,5.28
2022-11-14T16:26:26.360Z,5.34
2022-11-14T16:28:53.203Z,5.23
2022-11-14T16:31:20.739Z,5.15
2022-11-14T16:33:50.217Z,5.18
2022-11-14T16:36:20.785Z,5.11
2022-11-14T16:38:51.995Z,5.02
2022-11-14T16:41:19.661Z,5.05
2022-11-14T16:43:46.350Z,5.21
2022-11-14T16:46:12.946Z,5.10
2022-11-14T16:48:39.541Z,4.99
2022-11-14T16:51:20.219Z,5.08
2022-11-14T16:53:56.648Z,5.07
2022-11-14T16:56:23.604Z,5.02
2022-11-14T16:58:54.563Z,4.94
2022-11-14T17:01:21.825Z,5.00
2022-11-14T17:03:48.491Z,5.06
2022-11-14T17:06:15.144Z,4.92
2022-11-14T17:08:41.752Z,4.97
2022-11-14T17:11:09.886Z,4.86
2022-11-14T17:13:37.420Z,4.83
2022-11-14T17:16:04.894Z,4.93
2022-11-14T17:18:37.104Z,4.83
2022-11-14T17:21:09.501Z,4.96
2022-11-14T17:23:36.117Z,4.74
2022-11-14T17:26:03.669Z,4.99
2022-11-14T17:28:31.031Z,4.86
2022-11-14T17:30:58.114Z,4.79
2022-11-14T17:33:24.757Z,4.76
2022-11-14T17:35:51.426Z,4.71
2022-11-14T17:38:18.121Z,4.63
2022-11-14T17:40:44.786Z,4.64
2022-11-14T17:43:11.430Z,4.49
2022-11-14T17:45:41.106Z,4.59
2022-11-14T17:48:08.136Z,4.53
2022-11-14T17:50:38.613Z,4.57
2022-11-14T17:53:05.205Z,4.56
2022-11-14T17:55:31.903Z,4.74
2022-11-14T17:57:58.489Z,4.74
2022-11-14T18:00:25.158Z,4.65
2022-11-14T18:02:52.367Z,4.52
2022-11-14T18:05:19.103Z,4.59
2022-11-14T18:07:45.842Z,4.66
2022-11-14T18:10:12.506Z,4.78
2022-11-14T18:12:42.282Z,4.70
2022-11-14T18:15:09.216Z,4.69
2022-11-14T18:17:35.809Z,4.74
2022-11-14T18:20:02.736Z,4.78
2022-11-14T18:22:29.485Z,4.66
2022-11-14T18:24:56.129Z,4.76
2022-11-14T18:27:22.878Z,4.69
2022-11-14T18:29:49.470Z,4.82
2022-11-14T18:32:16.152Z,4.71
2022-11-14T18:34:42.728Z,4.62
2022-11-14T18:37:09.563Z,4.65
2022-11-14T18:39:36.206Z,4.50
2022-11-14T18:42:02.888Z,4.41
2022-11-14T18:44:29.867Z,4.74
2022-11-14T18:46:56.496Z,4.52
2022-11-14T18:49:23.153Z,4.55
2022-11-14T18:51:49.744Z,4.51
2022-11-14T18:54:17.151Z,4.52
2022-11-14T18:56:44.119Z,4.58
2022-11-14T18:59:10.801Z,4.56
2022-11-14T19:01:37.447Z,4.68
2022-11-14T19:04:06.018Z,4.71
2022-11-14T19:06:34.695Z,4.68
2022-11-14T19:09:11.385Z,4.52
2022-11-14T19:11:57.003Z,4.67
2022-11-14T19:14:23.808Z,4.67
2022-11-14T19:16:50.417Z,4.57
2022-11-14T19:19:17.072Z,4.45
2022-11-14T19:21:43.917Z,4.57
2022-11-14T19:24:10.552Z,4.52
2022-11-14T19:26:37.202Z,4.40
2022-11-14T19:29:05.596Z,4.42
2022-11-14T19:31:33.243Z,4.34
2022-11-14T19:34:00.350Z,4.32
2022-11-14T19:36:57.844Z,4.24
2022-11-14T19:39:13.870Z,4.27
2022-11-14T19:41:40.834Z,4.29
2022-11-14T19:44:07.498Z,4.19
2022-11-14T19:46:36.290Z,4.31
2022-11-14T19:49:03.927Z,4.29
2022-11-14T19:51:31.068Z,4.39
2022-11-14T19:53:58.573Z,4.49
2022-11-14T19:56:29.040Z,4.73
2022-11-14T19:58:56.745Z,4.68
2022-11-14T20:01:26.229Z,4.63
2022-11-14T20:04:01.208Z,4.79
2022-11-14T20:06:34.991Z,4.69
2022-11-14T20:09:04.536Z,4.69
2022-11-14T20:11:31.328Z,4.68
2022-11-14T20:13:58.575Z,4.83
2022-11-14T20:16:30.443Z,4.83
2022-11-14T20:19:00.017Z,4.77
2022-11-14T20:21:28.859Z,4.82
2022-11-14T20:23:55.626Z,4.79
2022-11-14T20:26:22.469Z,4.76
2022-11-14T20:28:52.077Z,4.78
2022-11-14T20:31:24.642Z,4.83
2022-11-14T20:33:52.906Z,4.87
2022-11-14T20:36:21.868Z,4.80
2022-11-14T20:38:49.048Z,4.98
2022-11-14T20:41:16.086Z,4.99
2022-11-14T20:43:43.239Z,4.94
2022-11-14T20:46:14.997Z,4.95
2022-11-14T20:48:41.879Z,4.90
2022-11-14T20:51:25.648Z,4.89
2022-11-14T20:53:54.112Z,4.94
2022-11-14T20:56:21.745Z,4.96
2022-11-14T20:58:51.695Z,5.02
2022-11-14T21:01:18.724Z,5.05
2022-11-14T21:03:45.645Z,5.06
2022-11-14T21:06:13.183Z,5.03
2022-11-14T21:08:40.080Z,5.13
2022-11-14T21:11:12.286Z,5.12
2022-11-14T21:13:58.729Z,5.21
2022-11-14T21:16:34.544Z,5.28
2022-11-14T21:19:03.362Z,5.20
2022-11-14T21:21:30.637Z,5.26
2022-11-14T21:23:57.550Z,5.23
2022-11-14T21:26:26.526Z,5.26
2022-11-14T21:28:55.432Z,5.27
2022-11-14T21:31:33.650Z,5.18
2022-11-14T21:34:02.250Z,5.19
2022-11-14T21:36:44.291Z,5.28
2022-11-14T21:39:14.610Z,5.19
2022-11-14T21:41:42.068Z,5.19
2022-11-14T21:44:13.778Z,5.16
2022-11-14T21:46:41.245Z,5.17
2022-11-14T21:49:08.356Z,5.32
2022-11-14T21:51:35.226Z,5.15
2022-11-14T21:54:02.881Z,5.14
2022-11-14T21:56:31.159Z,5.26
2022-11-14T21:59:21.407Z,5.26
2022-11-14T22:02:08.283Z,5.22
2022-11-14T22:04:35.525Z,5.12
2022-11-14T22:07:04.221Z,5.07
2022-11-14T22:09:31.180Z,5.15
2022-11-14T22:11:58.028Z,5.14
2022-11-14T22:14:24.981Z,5.22
2022-11-14T22:16:51.798Z,5.15
2022-11-14T22:19:19.031Z,5.20
2022-11-14T22:21:45.758Z,5.19
2022-11-14T22:24:12.414Z,5.11
2022-11-14T22:26:40.420Z,5.22
2022-11-14T22:29:07.841Z,5.19
2022-11-14T22:31:34.571Z,5.28
2022-11-14T22:34:01.283Z,5.10
2022-11-14T22:36:29.025Z,5.03
2022-11-14T22:38:56.620Z,5.14
2022-11-14T22:41:32.953Z,5.04
2022-11-14T22:44:00.725Z,5.04
2022-11-14T22:46:27.932Z,5.04
2022-11-14T22:48:54.865Z,4.95
2022-11-14T22:51:23.791Z,5.04
2022-11-14T22:53:52.212Z,4.98
2022-11-14T22:56:20.592Z,4.95
2022-11-14T22:58:47.293Z,4.97
2022-11-14T23:01:32.174Z,5.12
2022-11-14T23:04:04.153Z,5.20
2022-11-14T23:06:32.995Z,5.09
2022-11-14T23:09:00.670Z,5.12
2022-11-14T23:11:29.951Z,5.24
2022-11-14T23:13:57.651Z,5.09
2022-11-14T23:16:26.651Z,5.13
2022-11-14T23:18:55.323Z,5.06
2022-11-14T23:21:29.962Z,5.10
2022-11-14T23:24:01.047Z,5.20
2022-11-14T23:26:29.374Z,5.09
2022-11-14T23:28:57.512Z,5.10
2022-11-14T23:31:25.095Z,5.08
2022-11-14T23:33:53.992Z,5.04
2022-11-14T23:36:20.649Z,4.93
2022-11-14T23:38:47.313Z,4.96
2022-11-14T23:41:19.148Z,4.91
2022-11-14T23:43:46.391Z,4.96
2022-11-14T23:46:13.975Z,5.10
2022-11-14T23:48:41.002Z,5.03
2022-11-14T23:51:07.802Z,5.00
2022-11-14T23:53:34.605Z,5.00
2022-11-14T23:56:02.034Z,4.97
2022-11-14T23:58:29.945Z,5.00
